Terminal Aerodrome Forecast
Issued by NWS Knoxville/Tri Cities, TN

Current Version | Previous Version | Text Only | Print | Product List | Glossary On
Versions: 1 2 3 4 5 6 7 8 9 10 11 12 13 14 15 16
000
FTUS44 KMRX 042332
TAFTYS
TAF
KTYS 042332Z 0500/0524 26010KT P6SM VCSH SCT050 BKN060
      TEMPO 0500/0502 SHRA SCT025 OVC035
     FM050300 26007KT P6SM SCT040
     FM051200 27010G17KT P6SM VCSH BKN035=

USA.gov is the U.S. government's official web portal to all federal, state and local government web resources and services.